sensor_id;sensor_type;location;lat;lon;timestamp;P1;durP1;ratioP1;P2;durP2;ratioP2
47796;SDS011;33558;50.922;14.068;2023-03-01T00:00:40;23.77;;;12.93;;
47796;SDS011;33558;50.922;14.068;2023-03-01T00:03:12;26.60;;;13.47;;
47796;SDS011;33558;50.922;14.068;2023-03-01T00:05:43;26.80;;;14.73;;
47796;SDS011;33558;50.922;14.068;2023-03-01T00:08:11;28.10;;;13.90;;
47796;SDS011;33558;50.922;14.068;2023-03-01T00:10:41;27.03;;;14.43;;
47796;SDS011;33558;50.922;14.068;2023-03-01T00:13:08;26.47;;;13.97;;
47796;SDS011;33558;50.922;14.068;2023-03-01T00:15:38;29.40;;;14.43;;
47796;SDS011;33558;50.922;14.068;2023-03-01T00:18:06;24.53;;;14.07;;
47796;SDS011;33558;50.922;14.068;2023-03-01T00:20:35;28.27;;;13.43;;
47796;SDS011;33558;50.922;14.068;2023-03-01T00:23:03;23.50;;;13.17;;
47796;SDS011;33558;50.922;14.068;2023-03-01T00:25:31;24.73;;;14.70;;
47796;SDS011;33558;50.922;14.068;2023-03-01T00:28:00;24.50;;;12.97;;
47796;SDS011;33558;50.922;14.068;2023-03-01T00:30:28;25.27;;;13.43;;
47796;SDS011;33558;50.922;14.068;2023-03-01T00:32:55;25.10;;;12.90;;
47796;SDS011;33558;50.922;14.068;2023-03-01T00:35:23;26.23;;;13.70;;
47796;SDS011;33558;50.922;14.068;2023-03-01T00:37:52;25.53;;;12.97;;
47796;SDS011;33558;50.922;14.068;2023-03-01T00:40:23;23.97;;;13.20;;
47796;SDS011;33558;50.922;14.068;2023-03-01T00:42:50;25.80;;;13.40;;
47796;SDS011;33558;50.922;14.068;2023-03-01T00:45:18;23.50;;;13.03;;
47796;SDS011;33558;50.922;14.068;2023-03-01T00:47:45;26.33;;;16.30;;
47796;SDS011;33558;50.922;14.068;2023-03-01T00:50:12;21.67;;;11.67;;
47796;SDS011;33558;50.922;14.068;2023-03-01T00:52:40;27.57;;;12.60;;
47796;SDS011;33558;50.922;14.068;2023-03-01T00:55:07;25.03;;;12.83;;
47796;SDS011;33558;50.922;14.068;2023-03-01T00:57:35;23.07;;;13.00;;
47796;SDS011;33558;50.922;14.068;2023-03-01T01:00:03;24.73;;;12.93;;
47796;SDS011;33558;50.922;14.068;2023-03-01T01:02:33;25.30;;;12.80;;
47796;SDS011;33558;50.922;14.068;2023-03-01T01:05:01;25.57;;;13.63;;
47796;SDS011;33558;50.922;14.068;2023-03-01T01:07:32;20.60;;;11.60;;
47796;SDS011;33558;50.922;14.068;2023-03-01T01:09:59;24.13;;;12.07;;
47796;SDS011;33558;50.922;14.068;2023-03-01T01:12:27;24.77;;;12.43;;
47796;SDS011;33558;50.922;14.068;2023-03-01T01:14:54;22.77;;;12.00;;
47796;SDS011;33558;50.922;14.068;2023-03-01T01:17:21;24.17;;;13.50;;
47796;SDS011;33558;50.922;14.068;2023-03-01T01:19:50;29.17;;;13.50;;
47796;SDS011;33558;50.922;14.068;2023-03-01T01:22:17;26.43;;;12.27;;
47796;SDS011;33558;50.922;14.068;2023-03-01T01:24:44;23.27;;;11.97;;
47796;SDS011;33558;50.922;14.068;2023-03-01T01:27:11;25.40;;;12.73;;
47796;SDS011;33558;50.922;14.068;2023-03-01T01:29:38;25.00;;;12.80;;
47796;SDS011;33558;50.922;14.068;2023-03-01T01:32:07;26.93;;;13.97;;
47796;SDS011;33558;50.922;14.068;2023-03-01T01:34:34;24.40;;;12.53;;
47796;SDS011;33558;50.922;14.068;2023-03-01T01:37:03;24.53;;;12.63;;
47796;SDS011;33558;50.922;14.068;2023-03-01T01:39:33;27.27;;;14.07;;
47796;SDS011;33558;50.922;14.068;2023-03-01T01:42:00;25.00;;;12.77;;
47796;SDS011;33558;50.922;14.068;2023-03-01T01:44:27;28.10;;;13.67;;
47796;SDS011;33558;50.922;14.068;2023-03-01T01:46:55;20.80;;;12.03;;
47796;SDS011;33558;50.922;14.068;2023-03-01T01:49:26;23.87;;;13.13;;
47796;SDS011;33558;50.922;14.068;2023-03-01T01:51:57;26.77;;;12.77;;
47796;SDS011;33558;50.922;14.068;2023-03-01T01:54:31;22.53;;;12.97;;
47796;SDS011;33558;50.922;14.068;2023-03-01T01:57:03;28.00;;;13.27;;
47796;SDS011;33558;50.922;14.068;2023-03-01T01:59:35;29.00;;;13.43;;
47796;SDS011;33558;50.922;14.068;2023-03-01T02:02:03;22.80;;;12.57;;
47796;SDS011;33558;50.922;14.068;2023-03-01T02:04:31;25.80;;;13.30;;
47796;SDS011;33558;50.922;14.068;2023-03-01T02:09:43;25.47;;;13.70;;
47796;SDS011;33558;50.922;14.068;2023-03-01T02:12:12;25.27;;;13.20;;
47796;SDS011;33558;50.922;14.068;2023-03-01T02:14:40;27.53;;;13.53;;
47796;SDS011;33558;50.922;14.068;2023-03-01T02:17:07;26.93;;;13.47;;
47796;SDS011;33558;50.922;14.068;2023-03-01T02:19:39;24.80;;;12.40;;
47796;SDS011;33558;50.922;14.068;2023-03-01T02:22:13;23.77;;;12.73;;
47796;SDS011;33558;50.922;14.068;2023-03-01T02:24:48;23.50;;;13.38;;
47796;SDS011;33558;50.922;14.068;2023-03-01T05:24:15;31.30;;;14.50;;
47796;SDS011;33558;50.922;14.068;2023-03-01T05:26:42;31.00;;;14.97;;
47796;SDS011;33558;50.922;14.068;2023-03-01T05:29:09;28.87;;;14.77;;
47796;SDS011;33558;50.922;14.068;2023-03-01T05:31:36;29.93;;;14.73;;
47796;SDS011;33558;50.922;14.068;2023-03-01T05:34:03;23.83;;;13.87;;
47796;SDS011;33558;50.922;14.068;2023-03-01T05:36:31;28.93;;;14.30;;
47796;SDS011;33558;50.922;14.068;2023-03-01T05:38:58;28.07;;;14.57;;
47796;SDS011;33558;50.922;14.068;2023-03-01T05:41:26;31.73;;;13.60;;
47796;SDS011;33558;50.922;14.068;2023-03-01T05:43:53;28.00;;;15.10;;
47796;SDS011;33558;50.922;14.068;2023-03-01T05:46:21;26.80;;;13.83;;
47796;SDS011;33558;50.922;14.068;2023-03-01T05:48:49;34.17;;;14.63;;
47796;SDS011;33558;50.922;14.068;2023-03-01T05:51:16;26.40;;;13.43;;
47796;SDS011;33558;50.922;14.068;2023-03-01T05:53:44;27.97;;;13.73;;
47796;SDS011;33558;50.922;14.068;2023-03-01T08:29:19;41.47;;;20.70;;
47796;SDS011;33558;50.922;14.068;2023-03-01T08:31:46;37.83;;;19.67;;
47796;SDS011;33558;50.922;14.068;2023-03-01T08:34:16;36.50;;;21.90;;
47796;SDS011;33558;50.922;14.068;2023-03-01T08:36:43;39.07;;;20.67;;
47796;SDS011;33558;50.922;14.068;2023-03-01T08:39:11;42.77;;;22.50;;
47796;SDS011;33558;50.922;14.068;2023-03-01T08:41:39;39.27;;;20.40;;
47796;SDS011;33558;50.922;14.068;2023-03-01T08:44:06;41.53;;;21.27;;
47796;SDS011;33558;50.922;14.068;2023-03-01T08:46:35;37.20;;;20.90;;
47796;SDS011;33558;50.922;14.068;2023-03-01T08:49:03;39.77;;;21.90;;
47796;SDS011;33558;50.922;14.068;2023-03-01T08:51:29;40.27;;;21.37;;
47796;SDS011;33558;50.922;14.068;2023-03-01T08:53:57;43.17;;;23.53;;
47796;SDS011;33558;50.922;14.068;2023-03-01T08:56:24;39.73;;;20.93;;
47796;SDS011;33558;50.922;14.068;2023-03-01T08:58:50;38.97;;;21.37;;
47796;SDS011;33558;50.922;14.068;2023-03-01T09:01:18;38.63;;;20.83;;
47796;SDS011;33558;50.922;14.068;2023-03-01T09:03:46;35.90;;;19.63;;
47796;SDS011;33558;50.922;14.068;2023-03-01T09:06:13;40.97;;;21.40;;
47796;SDS011;33558;50.922;14.068;2023-03-01T09:08:41;35.20;;;20.20;;
47796;SDS011;33558;50.922;14.068;2023-03-01T09:11:09;35.60;;;18.83;;
47796;SDS011;33558;50.922;14.068;2023-03-01T09:13:36;36.03;;;19.63;;
47796;SDS011;33558;50.922;14.068;2023-03-01T09:16:04;37.90;;;20.60;;
47796;SDS011;33558;50.922;14.068;2023-03-01T09:18:32;33.10;;;19.10;;
47796;SDS011;33558;50.922;14.068;2023-03-01T09:21:04;36.33;;;20.03;;
47796;SDS011;33558;50.922;14.068;2023-03-01T09:23:32;38.10;;;20.43;;
47796;SDS011;33558;50.922;14.068;2023-03-01T09:25:59;34.17;;;19.17;;
47796;SDS011;33558;50.922;14.068;2023-03-01T09:28:25;34.20;;;19.30;;
47796;SDS011;33558;50.922;14.068;2023-03-01T09:30:52;34.73;;;20.07;;
47796;SDS011;33558;50.922;14.068;2023-03-01T09:33:19;34.27;;;19.37;;
47796;SDS011;33558;50.922;14.068;2023-03-01T09:35:48;37.63;;;20.10;;
47796;SDS011;33558;50.922;14.068;2023-03-01T09:38:17;35.77;;;19.50;;
47796;SDS011;33558;50.922;14.068;2023-03-01T09:40:44;35.60;;;19.73;;
47796;SDS011;33558;50.922;14.068;2023-03-01T09:43:15;34.47;;;20.57;;
47796;SDS011;33558;50.922;14.068;2023-03-01T09:45:45;33.93;;;18.33;;
47796;SDS011;33558;50.922;14.068;2023-03-01T09:48:16;32.83;;;18.17;;
47796;SDS011;33558;50.922;14.068;2023-03-01T09:50:47;32.87;;;18.00;;
47796;SDS011;33558;50.922;14.068;2023-03-01T09:53:15;39.30;;;18.87;;
47796;SDS011;33558;50.922;14.068;2023-03-01T09:55:45;33.57;;;18.83;;
47796;SDS011;33558;50.922;14.068;2023-03-01T10:01:09;32.80;;;17.67;;
47796;SDS011;33558;50.922;14.068;2023-03-01T10:03:43;29.90;;;16.67;;
47796;SDS011;33558;50.922;14.068;2023-03-01T10:06:11;30.17;;;17.13;;
47796;SDS011;33558;50.922;14.068;2023-03-01T10:08:41;30.20;;;17.27;;
47796;SDS011;33558;50.922;14.068;2023-03-01T10:11:21;26.10;;;16.13;;
47796;SDS011;33558;50.922;14.068;2023-03-01T10:13:50;28.97;;;16.70;;
47796;SDS011;33558;50.922;14.068;2023-03-01T10:16:22;27.80;;;15.57;;
47796;SDS011;33558;50.922;14.068;2023-03-01T10:18:53;31.60;;;16.83;;
47796;SDS011;33558;50.922;14.068;2023-03-01T10:21:25;29.77;;;16.60;;
47796;SDS011;33558;50.922;14.068;2023-03-01T10:23:53;28.57;;;15.97;;
47796;SDS011;33558;50.922;14.068;2023-03-01T10:26:35;31.63;;;16.70;;
47796;SDS011;33558;50.922;14.068;2023-03-01T10:29:07;27.80;;;15.43;;
47796;SDS011;33558;50.922;14.068;2023-03-01T10:31:37;29.10;;;15.00;;
47796;SDS011;33558;50.922;14.068;2023-03-01T10:34:08;31.00;;;17.73;;
47796;SDS011;33558;50.922;14.068;2023-03-01T10:36:36;28.67;;;16.37;;
47796;SDS011;33558;50.922;14.068;2023-03-01T10:39:06;31.07;;;15.93;;
47796;SDS011;33558;50.922;14.068;2023-03-01T10:41:44;28.03;;;15.90;;
47796;SDS011;33558;50.922;14.068;2023-03-01T10:44:34;27.27;;;15.80;;
47796;SDS011;33558;50.922;14.068;2023-03-01T10:47:08;28.10;;;16.20;;
47796;SDS011;33558;50.922;14.068;2023-03-01T10:49:46;25.23;;;14.77;;
47796;SDS011;33558;50.922;14.068;2023-03-01T10:52:20;25.20;;;14.37;;
47796;SDS011;33558;50.922;14.068;2023-03-01T10:54:51;24.07;;;14.07;;
47796;SDS011;33558;50.922;14.068;2023-03-01T10:57:32;22.20;;;14.23;;
47796;SDS011;33558;50.922;14.068;2023-03-01T11:00:15;22.00;;;13.30;;
47796;SDS011;33558;50.922;14.068;2023-03-01T11:02:49;27.93;;;14.83;;
47796;SDS011;33558;50.922;14.068;2023-03-01T11:05:19;21.60;;;13.43;;
47796;SDS011;33558;50.922;14.068;2023-03-01T11:07:49;22.90;;;13.67;;
47796;SDS011;33558;50.922;14.068;2023-03-01T11:10:18;23.10;;;13.87;;
47796;SDS011;33558;50.922;14.068;2023-03-01T11:12:47;22.43;;;13.43;;
47796;SDS011;33558;50.922;14.068;2023-03-01T11:15:20;22.00;;;13.03;;
47796;SDS011;33558;50.922;14.068;2023-03-01T11:17:49;23.47;;;13.03;;
47796;SDS011;33558;50.922;14.068;2023-03-01T11:20:19;21.63;;;12.80;;
47796;SDS011;33558;50.922;14.068;2023-03-01T11:22:52;21.03;;;12.70;;
47796;SDS011;33558;50.922;14.068;2023-03-01T11:25:21;21.43;;;13.37;;
47796;SDS011;33558;50.922;14.068;2023-03-01T11:27:52;24.37;;;13.43;;
47796;SDS011;33558;50.922;14.068;2023-03-01T11:30:20;21.43;;;12.43;;
47796;SDS011;33558;50.922;14.068;2023-03-01T11:32:50;22.30;;;12.90;;
47796;SDS011;33558;50.922;14.068;2023-03-01T11:35:22;18.50;;;11.70;;
47796;SDS011;33558;50.922;14.068;2023-03-01T11:37:53;18.73;;;11.63;;
47796;SDS011;33558;50.922;14.068;2023-03-01T11:40:26;19.17;;;12.20;;
47796;SDS011;33558;50.922;14.068;2023-03-01T11:42:59;20.80;;;12.37;;
47796;SDS011;33558;50.922;14.068;2023-03-01T11:45:35;17.80;;;12.07;;
47796;SDS011;33558;50.922;14.068;2023-03-01T11:48:13;20.00;;;12.52;;
47796;SDS011;33558;50.922;14.068;2023-03-01T11:50:58;19.93;;;12.60;;
47796;SDS011;33558;50.922;14.068;2023-03-01T11:53:35;23.03;;;13.43;;
47796;SDS011;33558;50.922;14.068;2023-03-01T11:56:12;24.00;;;13.70;;
47796;SDS011;33558;50.922;14.068;2023-03-01T12:01:37;23.60;;;13.73;;
47796;SDS011;33558;50.922;14.068;2023-03-01T12:04:15;21.17;;;12.73;;
47796;SDS011;33558;50.922;14.068;2023-03-01T12:06:51;23.07;;;13.43;;
47796;SDS011;33558;50.922;14.068;2023-03-01T12:09:22;22.20;;;13.73;;
47796;SDS011;33558;50.922;14.068;2023-03-01T12:12:01;22.73;;;13.97;;
47796;SDS011;33558;50.922;14.068;2023-03-01T12:14:39;20.40;;;13.53;;
47796;SDS011;33558;50.922;14.068;2023-03-01T12:17:16;23.73;;;13.73;;
47796;SDS011;33558;50.922;14.068;2023-03-01T12:20:10;22.13;;;14.00;;
47796;SDS011;33558;50.922;14.068;2023-03-01T12:22:44;22.50;;;13.33;;
47796;SDS011;33558;50.922;14.068;2023-03-01T12:25:20;18.47;;;12.27;;
47796;SDS011;33558;50.922;14.068;2023-03-01T12:27:56;20.77;;;12.87;;
47796;SDS011;33558;50.922;14.068;2023-03-01T12:30:35;24.20;;;13.27;;
47796;SDS011;33558;50.922;14.068;2023-03-01T12:33:12;18.93;;;12.20;;
47796;SDS011;33558;50.922;14.068;2023-03-01T12:35:53;20.75;;;13.60;;
47796;SDS011;33558;50.922;14.068;2023-03-01T12:38:31;21.97;;;12.97;;
47796;SDS011;33558;50.922;14.068;2023-03-01T12:41:04;19.98;;;12.95;;
47796;SDS011;33558;50.922;14.068;2023-03-01T12:43:41;21.87;;;12.93;;
47796;SDS011;33558;50.922;14.068;2023-03-01T12:46:18;19.30;;;12.13;;
47796;SDS011;33558;50.922;14.068;2023-03-01T12:48:51;20.60;;;13.20;;
47796;SDS011;33558;50.922;14.068;2023-03-01T12:51:24;18.33;;;12.70;;
47796;SDS011;33558;50.922;14.068;2023-03-01T12:53:51;22.30;;;13.33;;
47796;SDS011;33558;50.922;14.068;2023-03-01T12:56:20;19.30;;;12.97;;
47796;SDS011;33558;50.922;14.068;2023-03-01T12:58:51;22.50;;;13.73;;
47796;SDS011;33558;50.922;14.068;2023-03-01T13:01:30;18.40;;;12.38;;
47796;SDS011;33558;50.922;14.068;2023-03-01T13:06:55;22.93;;;13.70;;
47796;SDS011;33558;50.922;14.068;2023-03-01T13:09:29;21.33;;;13.60;;
47796;SDS011;33558;50.922;14.068;2023-03-01T13:12:00;21.50;;;14.97;;
47796;SDS011;33558;50.922;14.068;2023-03-01T13:14:43;19.27;;;13.65;;
47796;SDS011;33558;50.922;14.068;2023-03-01T13:17:32;18.55;;;13.68;;
47796;SDS011;33558;50.922;14.068;2023-03-01T13:20:14;19.08;;;13.80;;
47796;SDS011;33558;50.922;14.068;2023-03-01T13:22:41;19.83;;;13.75;;
47796;SDS011;33558;50.922;14.068;2023-03-01T13:25:13;21.52;;;14.48;;
47796;SDS011;33558;50.922;14.068;2023-03-01T13:27:41;19.40;;;12.90;;
47796;SDS011;33558;50.922;14.068;2023-03-01T13:36:13;18.15;;;13.02;;
47796;SDS011;33558;50.922;14.068;2023-03-01T13:39:27;18.75;;;13.50;;
47796;SDS011;33558;50.922;14.068;2023-03-01T13:41:57;19.33;;;13.68;;
47796;SDS011;33558;50.922;14.068;2023-03-01T13:44:26;19.60;;;13.43;;
47796;SDS011;33558;50.922;14.068;2023-03-01T13:46:57;17.70;;;13.23;;
47796;SDS011;33558;50.922;14.068;2023-03-01T13:49:26;18.45;;;14.13;;
47796;SDS011;33558;50.922;14.068;2023-03-01T13:51:56;18.83;;;12.13;;
47796;SDS011;33558;50.922;14.068;2023-03-01T13:54:25;16.73;;;12.85;;
47796;SDS011;33558;50.922;14.068;2023-03-01T13:56:54;19.10;;;13.88;;
47796;SDS011;33558;50.922;14.068;2023-03-01T13:59:22;19.33;;;14.02;;
47796;SDS011;33558;50.922;14.068;2023-03-01T14:01:55;19.50;;;13.70;;
47796;SDS011;33558;50.922;14.068;2023-03-01T14:04:23;16.70;;;11.83;;
47796;SDS011;33558;50.922;14.068;2023-03-01T14:06:52;16.53;;;11.40;;
47796;SDS011;33558;50.922;14.068;2023-03-01T14:09:37;17.07;;;11.33;;
47796;SDS011;33558;50.922;14.068;2023-03-01T14:12:10;16.20;;;11.40;;
47796;SDS011;33558;50.922;14.068;2023-03-01T14:14:46;18.90;;;11.27;;
47796;SDS011;33558;50.922;14.068;2023-03-01T14:20:12;17.83;;;10.13;;
47796;SDS011;33558;50.922;14.068;2023-03-01T14:22:44;18.03;;;9.77;;
47796;SDS011;33558;50.922;14.068;2023-03-01T14:25:19;16.43;;;10.07;;
47796;SDS011;33558;50.922;14.068;2023-03-01T14:27:51;15.70;;;9.93;;
47796;SDS011;33558;50.922;14.068;2023-03-01T14:30:21;18.23;;;11.33;;
47796;SDS011;33558;50.922;14.068;2023-03-01T14:32:53;23.00;;;11.60;;
47796;SDS011;33558;50.922;14.068;2023-03-01T14:35:21;17.00;;;10.80;;
47796;SDS011;33558;50.922;14.068;2023-03-01T14:37:50;16.63;;;10.80;;
47796;SDS011;33558;50.922;14.068;2023-03-01T14:40:21;21.33;;;11.20;;
47796;SDS011;33558;50.922;14.068;2023-03-01T14:42:50;20.07;;;10.97;;
47796;SDS011;33558;50.922;14.068;2023-03-01T14:45:17;23.43;;;13.50;;
47796;SDS011;33558;50.922;14.068;2023-03-01T14:47:45;29.10;;;13.77;;
47796;SDS011;33558;50.922;14.068;2023-03-01T14:50:15;22.27;;;12.93;;
47796;SDS011;33558;50.922;14.068;2023-03-01T14:52:48;22.50;;;12.77;;
47796;SDS011;33558;50.922;14.068;2023-03-01T14:55:19;20.17;;;12.93;;
47796;SDS011;33558;50.922;14.068;2023-03-01T14:57:47;21.33;;;13.50;;
47796;SDS011;33558;50.922;14.068;2023-03-01T15:00:16;21.90;;;12.80;;
47796;SDS011;33558;50.922;14.068;2023-03-01T15:02:45;39.53;;;18.63;;
47796;SDS011;33558;50.922;14.068;2023-03-01T15:05:13;23.97;;;14.07;;
47796;SDS011;33558;50.922;14.068;2023-03-01T15:07:41;26.07;;;13.13;;
47796;SDS011;33558;50.922;14.068;2023-03-01T15:10:17;22.70;;;13.70;;
47796;SDS011;33558;50.922;14.068;2023-03-01T15:12:47;19.73;;;12.27;;
47796;SDS011;33558;50.922;14.068;2023-03-01T15:18:03;23.83;;;13.43;;
47796;SDS011;33558;50.922;14.068;2023-03-01T15:20:32;21.70;;;13.57;;
47796;SDS011;33558;50.922;14.068;2023-03-01T15:23:01;25.47;;;13.80;;
47796;SDS011;33558;50.922;14.068;2023-03-01T15:25:30;18.40;;;11.60;;
47796;SDS011;33558;50.922;14.068;2023-03-01T15:27:59;20.17;;;11.93;;
47796;SDS011;33558;50.922;14.068;2023-03-01T15:30:27;20.83;;;11.37;;
47796;SDS011;33558;50.922;14.068;2023-03-01T15:35:47;19.93;;;11.40;;
47796;SDS011;33558;50.922;14.068;2023-03-01T15:38:23;20.80;;;11.77;;
47796;SDS011;33558;50.922;14.068;2023-03-01T15:40:53;16.57;;;11.07;;
47796;SDS011;33558;50.922;14.068;2023-03-01T15:46:12;20.23;;;10.80;;
47796;SDS011;33558;50.922;14.068;2023-03-01T15:48:43;21.20;;;11.50;;
47796;SDS011;33558;50.922;14.068;2023-03-01T15:51:11;19.47;;;11.63;;
47796;SDS011;33558;50.922;14.068;2023-03-01T15:53:39;21.10;;;12.50;;
47796;SDS011;33558;50.922;14.068;2023-03-01T15:56:07;19.40;;;11.73;;
47796;SDS011;33558;50.922;14.068;2023-03-01T15:58:34;20.77;;;12.13;;
47796;SDS011;33558;50.922;14.068;2023-03-01T16:01:01;24.47;;;12.23;;
47796;SDS011;33558;50.922;14.068;2023-03-01T16:03:27;25.23;;;14.03;;
47796;SDS011;33558;50.922;14.068;2023-03-01T16:05:54;21.53;;;12.47;;
47796;SDS011;33558;50.922;14.068;2023-03-01T16:08:21;19.73;;;11.67;;
47796;SDS011;33558;50.922;14.068;2023-03-01T16:10:48;20.13;;;11.50;;
47796;SDS011;33558;50.922;14.068;2023-03-01T16:13:18;19.37;;;11.73;;
47796;SDS011;33558;50.922;14.068;2023-03-01T16:15:44;19.20;;;11.07;;
47796;SDS011;33558;50.922;14.068;2023-03-01T16:18:11;20.07;;;10.07;;
47796;SDS011;33558;50.922;14.068;2023-03-01T16:20:38;17.27;;;10.67;;
47796;SDS011;33558;50.922;14.068;2023-03-01T16:23:05;17.37;;;10.30;;
47796;SDS011;33558;50.922;14.068;2023-03-01T16:25:33;20.53;;;10.20;;
47796;SDS011;33558;50.922;14.068;2023-03-01T16:28:00;19.43;;;10.77;;
47796;SDS011;33558;50.922;14.068;2023-03-01T16:30:31;21.07;;;10.70;;
47796;SDS011;33558;50.922;14.068;2023-03-01T16:32:58;26.43;;;12.13;;
47796;SDS011;33558;50.922;14.068;2023-03-01T16:35:25;19.43;;;11.77;;
47796;SDS011;33558;50.922;14.068;2023-03-01T16:37:52;19.57;;;10.47;;
47796;SDS011;33558;50.922;14.068;2023-03-01T16:40:20;20.97;;;11.13;;
47796;SDS011;33558;50.922;14.068;2023-03-01T16:42:47;19.73;;;11.60;;
47796;SDS011;33558;50.922;14.068;2023-03-01T16:45:14;18.50;;;10.90;;
47796;SDS011;33558;50.922;14.068;2023-03-01T16:47:43;21.40;;;10.77;;
47796;SDS011;33558;50.922;14.068;2023-03-01T16:50:10;20.53;;;10.73;;
47796;SDS011;33558;50.922;14.068;2023-03-01T16:52:37;17.93;;;10.33;;
47796;SDS011;33558;50.922;14.068;2023-03-01T16:55:05;20.97;;;10.83;;
47796;SDS011;33558;50.922;14.068;2023-03-01T16:57:35;23.57;;;11.93;;
47796;SDS011;33558;50.922;14.068;2023-03-01T17:00:02;23.37;;;12.73;;
47796;SDS011;33558;50.922;14.068;2023-03-01T17:02:32;24.53;;;12.53;;
47796;SDS011;33558;50.922;14.068;2023-03-01T17:05:00;23.23;;;12.63;;
47796;SDS011;33558;50.922;14.068;2023-03-01T17:07:28;25.67;;;14.50;;
47796;SDS011;33558;50.922;14.068;2023-03-01T17:09:58;24.73;;;14.20;;
47796;SDS011;33558;50.922;14.068;2023-03-01T17:12:24;23.53;;;13.47;;
47796;SDS011;33558;50.922;14.068;2023-03-01T17:14:52;23.13;;;13.40;;
47796;SDS011;33558;50.922;14.068;2023-03-01T17:17:19;22.53;;;12.13;;
47796;SDS011;33558;50.922;14.068;2023-03-01T17:19:45;20.57;;;12.37;;
47796;SDS011;33558;50.922;14.068;2023-03-01T17:25:02;21.60;;;12.37;;
47796;SDS011;33558;50.922;14.068;2023-03-01T17:27:29;21.93;;;12.83;;
47796;SDS011;33558;50.922;14.068;2023-03-01T17:29:59;29.60;;;14.73;;
47796;SDS011;33558;50.922;14.068;2023-03-01T17:32:26;24.40;;;12.87;;
47796;SDS011;33558;50.922;14.068;2023-03-01T17:34:53;24.53;;;13.57;;
47796;SDS011;33558;50.922;14.068;2023-03-01T17:37:19;28.83;;;14.37;;
47796;SDS011;33558;50.922;14.068;2023-03-01T17:39:48;24.60;;;12.90;;
47796;SDS011;33558;50.922;14.068;2023-03-01T17:42:14;23.97;;;13.97;;
47796;SDS011;33558;50.922;14.068;2023-03-01T17:44:41;27.63;;;15.90;;
47796;SDS011;33558;50.922;14.068;2023-03-01T17:47:08;21.70;;;14.03;;
47796;SDS011;33558;50.922;14.068;2023-03-01T17:49:35;23.90;;;13.53;;
47796;SDS011;33558;50.922;14.068;2023-03-01T17:52:02;24.87;;;14.23;;
47796;SDS011;33558;50.922;14.068;2023-03-01T17:54:28;24.00;;;13.70;;
47796;SDS011;33558;50.922;14.068;2023-03-01T17:56:58;22.80;;;12.90;;
47796;SDS011;33558;50.922;14.068;2023-03-01T17:59:25;26.60;;;14.23;;
47796;SDS011;33558;50.922;14.068;2023-03-01T18:01:55;26.57;;;13.87;;
47796;SDS011;33558;50.922;14.068;2023-03-01T18:04:22;21.93;;;11.90;;
47796;SDS011;33558;50.922;14.068;2023-03-01T18:06:49;22.47;;;11.17;;
47796;SDS011;33558;50.922;14.068;2023-03-01T18:09:16;21.63;;;12.37;;
47796;SDS011;33558;50.922;14.068;2023-03-01T18:11:43;21.40;;;12.10;;
47796;SDS011;33558;50.922;14.068;2023-03-01T18:14:11;25.67;;;12.73;;
47796;SDS011;33558;50.922;14.068;2023-03-01T18:16:38;20.67;;;13.23;;
47796;SDS011;33558;50.922;14.068;2023-03-01T18:19:05;24.40;;;13.60;;
47796;SDS011;33558;50.922;14.068;2023-03-01T18:21:31;24.40;;;13.47;;
47796;SDS011;33558;50.922;14.068;2023-03-01T18:23:58;20.97;;;12.10;;
47796;SDS011;33558;50.922;14.068;2023-03-01T18:26:25;24.40;;;13.70;;
47796;SDS011;33558;50.922;14.068;2023-03-01T18:28:53;24.03;;;12.90;;
47796;SDS011;33558;50.922;14.068;2023-03-01T18:31:23;24.57;;;14.03;;
47796;SDS011;33558;50.922;14.068;2023-03-01T18:33:51;27.93;;;13.60;;
47796;SDS011;33558;50.922;14.068;2023-03-01T18:36:20;28.40;;;13.63;;
47796;SDS011;33558;50.922;14.068;2023-03-01T18:38:47;26.60;;;14.17;;
47796;SDS011;33558;50.922;14.068;2023-03-01T18:41:14;26.87;;;14.53;;
47796;SDS011;33558;50.922;14.068;2023-03-01T18:43:41;27.20;;;15.40;;
47796;SDS011;33558;50.922;14.068;2023-03-01T18:46:07;26.83;;;13.77;;
47796;SDS011;33558;50.922;14.068;2023-03-01T18:48:35;26.43;;;13.43;;
47796;SDS011;33558;50.922;14.068;2023-03-01T18:51:09;23.70;;;13.77;;
47796;SDS011;33558;50.922;14.068;2023-03-01T18:53:36;26.57;;;13.57;;
47796;SDS011;33558;50.922;14.068;2023-03-01T18:56:03;26.20;;;12.33;;
47796;SDS011;33558;50.922;14.068;2023-03-01T18:58:30;24.30;;;14.07;;
47796;SDS011;33558;50.922;14.068;2023-03-01T19:00:56;22.60;;;12.80;;
47796;SDS011;33558;50.922;14.068;2023-03-01T19:03:24;25.03;;;14.20;;
47796;SDS011;33558;50.922;14.068;2023-03-01T19:05:54;23.17;;;12.77;;
47796;SDS011;33558;50.922;14.068;2023-03-01T19:08:21;25.90;;;13.30;;
47796;SDS011;33558;50.922;14.068;2023-03-01T19:10:53;23.77;;;13.50;;
47796;SDS011;33558;50.922;14.068;2023-03-01T19:13:20;25.73;;;13.93;;
47796;SDS011;33558;50.922;14.068;2023-03-01T19:15:47;25.77;;;12.83;;
47796;SDS011;33558;50.922;14.068;2023-03-01T19:18:14;24.30;;;13.53;;
47796;SDS011;33558;50.922;14.068;2023-03-01T19:20:41;28.83;;;14.50;;
47796;SDS011;33558;50.922;14.068;2023-03-01T19:23:08;27.23;;;14.80;;
47796;SDS011;33558;50.922;14.068;2023-03-01T19:25:35;23.13;;;13.60;;
47796;SDS011;33558;50.922;14.068;2023-03-01T19:28:02;25.37;;;13.57;;
47796;SDS011;33558;50.922;14.068;2023-03-01T19:30:29;26.93;;;15.50;;
47796;SDS011;33558;50.922;14.068;2023-03-01T19:32:56;28.87;;;14.97;;
47796;SDS011;33558;50.922;14.068;2023-03-01T19:35:22;28.17;;;14.53;;
47796;SDS011;33558;50.922;14.068;2023-03-01T19:37:49;25.23;;;14.37;;
47796;SDS011;33558;50.922;14.068;2023-03-01T19:40:17;29.37;;;15.10;;
47796;SDS011;33558;50.922;14.068;2023-03-01T19:42:44;27.57;;;14.73;;
47796;SDS011;33558;50.922;14.068;2023-03-01T19:45:11;34.20;;;17.70;;
47796;SDS011;33558;50.922;14.068;2023-03-01T19:47:37;24.23;;;13.87;;
47796;SDS011;33558;50.922;14.068;2023-03-01T19:50:04;31.97;;;14.67;;
47796;SDS011;33558;50.922;14.068;2023-03-01T19:52:31;26.83;;;14.83;;
47796;SDS011;33558;50.922;14.068;2023-03-01T19:54:58;27.70;;;15.30;;
47796;SDS011;33558;50.922;14.068;2023-03-01T19:57:26;28.00;;;14.13;;
47796;SDS011;33558;50.922;14.068;2023-03-01T19:59:52;30.60;;;15.67;;
47796;SDS011;33558;50.922;14.068;2023-03-01T20:02:19;25.97;;;13.93;;
47796;SDS011;33558;50.922;14.068;2023-03-01T20:04:46;26.23;;;13.57;;
47796;SDS011;33558;50.922;14.068;2023-03-01T20:07:12;25.27;;;13.70;;
47796;SDS011;33558;50.922;14.068;2023-03-01T20:09:39;25.87;;;14.30;;
47796;SDS011;33558;50.922;14.068;2023-03-01T20:12:06;28.83;;;13.97;;
47796;SDS011;33558;50.922;14.068;2023-03-01T20:14:34;24.47;;;12.80;;
47796;SDS011;33558;50.922;14.068;2023-03-01T20:17:01;23.27;;;12.37;;
47796;SDS011;33558;50.922;14.068;2023-03-01T20:19:28;23.90;;;13.10;;
47796;SDS011;33558;50.922;14.068;2023-03-01T20:21:54;21.13;;;11.77;;
47796;SDS011;33558;50.922;14.068;2023-03-01T20:24:21;25.27;;;13.23;;